sensor_id;sensor_type;location;lat;lon;timestamp;temperature;humidity
18189;DHT22;9219;50.396;8.546;2023-08-01T00:00:26;17.90;99.90
18189;DHT22;9219;50.396;8.546;2023-08-01T00:06:36;18.10;99.90
18189;DHT22;9219;50.396;8.546;2023-08-01T00:09:03;18.10;99.90
18189;DHT22;9219;50.396;8.546;2023-08-01T00:11:31;18.10;99.90
18189;DHT22;9219;50.396;8.546;2023-08-01T00:13:58;18.20;99.90
18189;DHT22;9219;50.396;8.546;2023-08-01T00:16:25;18.30;99.90
18189;DHT22;9219;50.396;8.546;2023-08-01T00:18:53;18.30;99.90
18189;DHT22;9219;50.396;8.546;2023-08-01T00:21:20;18.30;99.90
18189;DHT22;9219;50.396;8.546;2023-08-01T00:28:56;18.50;99.90
18189;DHT22;9219;50.396;8.546;2023-08-01T00:31:26;18.40;99.90
18189;DHT22;9219;50.396;8.546;2023-08-01T00:33:53;18.20;99.90
18189;DHT22;9219;50.396;8.546;2023-08-01T00:36:21;18.30;99.90
18189;DHT22;9219;50.396;8.546;2023-08-01T00:38:48;18.50;99.90
18189;DHT22;9219;50.396;8.546;2023-08-01T00:41:15;18.50;99.90
18189;DHT22;9219;50.396;8.546;2023-08-01T00:43:43;18.50;99.90
18189;DHT22;9219;50.396;8.546;2023-08-01T00:51:08;18.30;99.90
18189;DHT22;9219;50.396;8.546;2023-08-01T00:53:36;18.30;99.90
18189;DHT22;9219;50.396;8.546;2023-08-01T00:56:04;18.30;99.90
18189;DHT22;9219;50.396;8.546;2023-08-01T00:58:31;18.20;99.90
18189;DHT22;9219;50.396;8.546;2023-08-01T01:00:58;18.10;99.90
18189;DHT22;9219;50.396;8.546;2023-08-01T01:03:26;18.00;99.90
18189;DHT22;9219;50.396;8.546;2023-08-01T01:05:57;17.90;99.90
18189;DHT22;9219;50.396;8.546;2023-08-01T01:13:30;17.70;99.90
18189;DHT22;9219;50.396;8.546;2023-08-01T01:15:58;17.50;99.90
18189;DHT22;9219;50.396;8.546;2023-08-01T01:18:25;17.80;99.90
18189;DHT22;9219;50.396;8.546;2023-08-01T01:20:53;17.90;99.90
18189;DHT22;9219;50.396;8.546;2023-08-01T01:23:21;17.80;99.90
18189;DHT22;9219;50.396;8.546;2023-08-01T01:25:49;17.90;99.90
18189;DHT22;9219;50.396;8.546;2023-08-01T01:28:18;18.10;99.90
18189;DHT22;9219;50.396;8.546;2023-08-01T01:35:50;17.80;99.90
18189;DHT22;9219;50.396;8.546;2023-08-01T01:38:17;17.80;99.90
18189;DHT22;9219;50.396;8.546;2023-08-01T01:40:44;17.90;99.90
18189;DHT22;9219;50.396;8.546;2023-08-01T01:43:11;17.70;99.90
18189;DHT22;9219;50.396;8.546;2023-08-01T01:45:38;17.80;99.90
18189;DHT22;9219;50.396;8.546;2023-08-01T01:48:06;17.80;99.90
18189;DHT22;9219;50.396;8.546;2023-08-01T01:50:36;17.80;99.90
18189;DHT22;9219;50.396;8.546;2023-08-01T01:58:07;17.70;99.90
18189;DHT22;9219;50.396;8.546;2023-08-01T02:00:34;17.80;99.90
18189;DHT22;9219;50.396;8.546;2023-08-01T02:03:01;17.90;99.90
18189;DHT22;9219;50.396;8.546;2023-08-01T02:05:29;18.10;99.90
18189;DHT22;9219;50.396;8.546;2023-08-01T02:07:56;18.20;99.90
18189;DHT22;9219;50.396;8.546;2023-08-01T02:10:23;18.10;99.90
18189;DHT22;9219;50.396;8.546;2023-08-01T02:12:51;18.20;99.90
18189;DHT22;9219;50.396;8.546;2023-08-01T02:20:26;18.10;99.90
18189;DHT22;9219;50.396;8.546;2023-08-01T02:22:55;18.20;99.90
18189;DHT22;9219;50.396;8.546;2023-08-01T02:25:23;18.30;99.90
18189;DHT22;9219;50.396;8.546;2023-08-01T02:27:50;18.50;99.90
18189;DHT22;9219;50.396;8.546;2023-08-01T02:30:17;18.30;99.90
18189;DHT22;9219;50.396;8.546;2023-08-01T02:32:44;18.40;99.90
18189;DHT22;9219;50.396;8.546;2023-08-01T02:35:11;18.30;99.90
18189;DHT22;9219;50.396;8.546;2023-08-01T02:42:45;18.40;99.90
18189;DHT22;9219;50.396;8.546;2023-08-01T02:45:15;18.30;99.90
18189;DHT22;9219;50.396;8.546;2023-08-01T02:47:42;18.30;99.90
18189;DHT22;9219;50.396;8.546;2023-08-01T02:50:10;18.40;99.90
18189;DHT22;9219;50.396;8.546;2023-08-01T02:52:37;18.50;99.90
18189;DHT22;9219;50.396;8.546;2023-08-01T02:55:05;18.40;99.90
18189;DHT22;9219;50.396;8.546;2023-08-01T02:57:32;18.50;99.90
18189;DHT22;9219;50.396;8.546;2023-08-01T03:04:29;18.20;99.90
18189;DHT22;9219;50.396;8.546;2023-08-01T03:07:12;18.30;99.90
18189;DHT22;9219;50.396;8.546;2023-08-01T03:09:39;18.10;99.90
18189;DHT22;9219;50.396;8.546;2023-08-01T03:12:06;18.00;99.90
18189;DHT22;9219;50.396;8.546;2023-08-01T03:14:35;17.90;99.90
18189;DHT22;9219;50.396;8.546;2023-08-01T03:17:03;18.20;99.90
18189;DHT22;9219;50.396;8.546;2023-08-01T03:19:31;18.10;99.90
18189;DHT22;9219;50.396;8.546;2023-08-01T03:27:07;18.30;99.90
18189;DHT22;9219;50.396;8.546;2023-08-01T03:29:34;18.20;99.90
18189;DHT22;9219;50.396;8.546;2023-08-01T03:32:01;18.30;99.90
18189;DHT22;9219;50.396;8.546;2023-08-01T03:34:31;18.50;99.90
18189;DHT22;9219;50.396;8.546;2023-08-01T03:37:00;18.10;99.90
18189;DHT22;9219;50.396;8.546;2023-08-01T03:39:30;18.30;99.90
18189;DHT22;9219;50.396;8.546;2023-08-01T03:41:57;18.30;99.90
18189;DHT22;9219;50.396;8.546;2023-08-01T03:47:07;18.10;99.90
18189;DHT22;9219;50.396;8.546;2023-08-01T03:49:35;18.20;99.90
18189;DHT22;9219;50.396;8.546;2023-08-01T03:52:02;18.50;99.90
18189;DHT22;9219;50.396;8.546;2023-08-01T03:54:32;18.30;99.90
18189;DHT22;9219;50.396;8.546;2023-08-01T03:56:59;18.10;99.90
18189;DHT22;9219;50.396;8.546;2023-08-01T03:59:26;18.20;99.90
18189;DHT22;9219;50.396;8.546;2023-08-01T04:01:54;18.20;99.90
18189;DHT22;9219;50.396;8.546;2023-08-01T04:09:35;18.50;99.90
18189;DHT22;9219;50.396;8.546;2023-08-01T04:12:05;18.20;99.90
18189;DHT22;9219;50.396;8.546;2023-08-01T04:14:33;18.30;99.90
18189;DHT22;9219;50.396;8.546;2023-08-01T04:17:00;18.30;99.90
18189;DHT22;9219;50.396;8.546;2023-08-01T04:19:28;18.30;99.90
18189;DHT22;9219;50.396;8.546;2023-08-01T04:21:56;18.20;99.90
18189;DHT22;9219;50.396;8.546;2023-08-01T04:24:23;18.30;99.90
18189;DHT22;9219;50.396;8.546;2023-08-01T04:26:52;18.20;99.90
18189;DHT22;9219;50.396;8.546;2023-08-01T04:33:58;18.50;99.90
18189;DHT22;9219;50.396;8.546;2023-08-01T04:36:29;18.50;99.90
18189;DHT22;9219;50.396;8.546;2023-08-01T04:38:56;18.60;99.90
18189;DHT22;9219;50.396;8.546;2023-08-01T04:41:23;18.50;99.90
18189;DHT22;9219;50.396;8.546;2023-08-01T04:43:51;18.20;99.90
18189;DHT22;9219;50.396;8.546;2023-08-01T04:46:18;18.10;99.90
18189;DHT22;9219;50.396;8.546;2023-08-01T04:48:46;18.00;99.90
18189;DHT22;9219;50.396;8.546;2023-08-01T04:56:18;18.30;99.90
18189;DHT22;9219;50.396;8.546;2023-08-01T04:58:45;18.30;99.90
18189;DHT22;9219;50.396;8.546;2023-08-01T05:01:12;18.30;99.90
18189;DHT22;9219;50.396;8.546;2023-08-01T05:03:41;18.50;99.90
18189;DHT22;9219;50.396;8.546;2023-08-01T05:06:08;18.60;99.90
18189;DHT22;9219;50.396;8.546;2023-08-01T05:08:35;19.00;99.90
18189;DHT22;9219;50.396;8.546;2023-08-01T05:11:02;18.90;99.90
18189;DHT22;9219;50.396;8.546;2023-08-01T05:18:29;18.00;99.90
18189;DHT22;9219;50.396;8.546;2023-08-01T05:20:59;17.70;99.90
18189;DHT22;9219;50.396;8.546;2023-08-01T05:23:26;17.50;99.90
18189;DHT22;9219;50.396;8.546;2023-08-01T05:25:53;17.30;99.90
18189;DHT22;9219;50.396;8.546;2023-08-01T05:28:20;16.90;99.90
18189;DHT22;9219;50.396;8.546;2023-08-01T05:30:47;16.80;99.90
18189;DHT22;9219;50.396;8.546;2023-08-01T05:33:15;17.00;99.90
18189;DHT22;9219;50.396;8.546;2023-08-01T05:40:51;17.10;99.90
18189;DHT22;9219;50.396;8.546;2023-08-01T05:43:24;16.50;99.90
18189;DHT22;9219;50.396;8.546;2023-08-01T05:45:51;16.20;99.90
18189;DHT22;9219;50.396;8.546;2023-08-01T05:48:19;15.70;99.90
18189;DHT22;9219;50.396;8.546;2023-08-01T05:50:47;15.50;99.90
18189;DHT22;9219;50.396;8.546;2023-08-01T05:53:14;15.50;99.90
18189;DHT22;9219;50.396;8.546;2023-08-01T05:55:47;15.70;99.90
18189;DHT22;9219;50.396;8.546;2023-08-01T05:58:15;15.70;99.90
18189;DHT22;9219;50.396;8.546;2023-08-01T06:05:49;15.60;99.90
18189;DHT22;9219;50.396;8.546;2023-08-01T06:08:17;15.00;99.90
18189;DHT22;9219;50.396;8.546;2023-08-01T06:10:45;15.00;99.90
18189;DHT22;9219;50.396;8.546;2023-08-01T06:13:13;15.10;99.90
18189;DHT22;9219;50.396;8.546;2023-08-01T06:15:42;14.90;99.90
18189;DHT22;9219;50.396;8.546;2023-08-01T06:18:10;15.10;99.90
18189;DHT22;9219;50.396;8.546;2023-08-01T06:20:37;15.20;99.90
18189;DHT22;9219;50.396;8.546;2023-08-01T06:27:47;15.00;99.90
18189;DHT22;9219;50.396;8.546;2023-08-01T06:30:15;14.90;99.90
18189;DHT22;9219;50.396;8.546;2023-08-01T06:32:42;14.70;99.90
18189;DHT22;9219;50.396;8.546;2023-08-01T06:35:09;14.70;99.90
18189;DHT22;9219;50.396;8.546;2023-08-01T06:37:37;14.70;99.90
18189;DHT22;9219;50.396;8.546;2023-08-01T06:40:05;14.70;99.90
18189;DHT22;9219;50.396;8.546;2023-08-01T06:42:32;14.60;99.90
18189;DHT22;9219;50.396;8.546;2023-08-01T06:50:07;14.80;99.90
18189;DHT22;9219;50.396;8.546;2023-08-01T06:52:34;14.80;99.90
18189;DHT22;9219;50.396;8.546;2023-08-01T06:55:02;14.80;99.90
18189;DHT22;9219;50.396;8.546;2023-08-01T06:57:30;14.70;99.90
18189;DHT22;9219;50.396;8.546;2023-08-01T06:59:57;14.60;99.90
18189;DHT22;9219;50.396;8.546;2023-08-01T07:02:28;14.80;99.90
18189;DHT22;9219;50.396;8.546;2023-08-01T07:04:55;14.90;99.90
18189;DHT22;9219;50.396;8.546;2023-08-01T07:12:04;15.10;99.90
18189;DHT22;9219;50.396;8.546;2023-08-01T07:14:32;15.40;99.90
18189;DHT22;9219;50.396;8.546;2023-08-01T07:16:59;15.50;99.90
18189;DHT22;9219;50.396;8.546;2023-08-01T07:19:26;15.50;99.90
18189;DHT22;9219;50.396;8.546;2023-08-01T07:21:53;15.50;99.90
18189;DHT22;9219;50.396;8.546;2023-08-01T07:24:24;15.30;99.90
18189;DHT22;9219;50.396;8.546;2023-08-01T07:26:55;15.60;99.90
18189;DHT22;9219;50.396;8.546;2023-08-01T07:33:52;15.70;99.90
18189;DHT22;9219;50.396;8.546;2023-08-01T07:36:19;15.40;99.90
18189;DHT22;9219;50.396;8.546;2023-08-01T07:38:48;15.40;99.90
18189;DHT22;9219;50.396;8.546;2023-08-01T07:41:15;15.40;99.90
18189;DHT22;9219;50.396;8.546;2023-08-01T07:43:43;15.30;99.90
18189;DHT22;9219;50.396;8.546;2023-08-01T07:46:10;15.10;99.90
18189;DHT22;9219;50.396;8.546;2023-08-01T07:48:39;15.20;99.90
18189;DHT22;9219;50.396;8.546;2023-08-01T07:54:30;15.20;99.90
18189;DHT22;9219;50.396;8.546;2023-08-01T07:56:57;15.10;99.90
18189;DHT22;9219;50.396;8.546;2023-08-01T07:59:24;15.30;99.90
18189;DHT22;9219;50.396;8.546;2023-08-01T08:01:52;15.40;99.90
18189;DHT22;9219;50.396;8.546;2023-08-01T08:04:19;15.60;99.90
18189;DHT22;9219;50.396;8.546;2023-08-01T08:06:50;15.70;99.90
18189;DHT22;9219;50.396;8.546;2023-08-01T08:09:22;15.80;99.90
18189;DHT22;9219;50.396;8.546;2023-08-01T08:15:01;15.80;99.90
18189;DHT22;9219;50.396;8.546;2023-08-01T08:17:28;15.50;99.90
18189;DHT22;9219;50.396;8.546;2023-08-01T08:19:55;15.60;99.90
18189;DHT22;9219;50.396;8.546;2023-08-01T08:22:22;15.70;99.90
18189;DHT22;9219;50.396;8.546;2023-08-01T08:24:51;15.80;99.90
18189;DHT22;9219;50.396;8.546;2023-08-01T08:27:18;16.20;99.90
18189;DHT22;9219;50.396;8.546;2023-08-01T08:29:46;16.20;99.90
18189;DHT22;9219;50.396;8.546;2023-08-01T08:36:41;16.70;99.90
18189;DHT22;9219;50.396;8.546;2023-08-01T08:39:09;17.20;99.90
18189;DHT22;9219;50.396;8.546;2023-08-01T08:41:40;17.10;99.90
18189;DHT22;9219;50.396;8.546;2023-08-01T08:44:11;16.80;99.90
18189;DHT22;9219;50.396;8.546;2023-08-01T08:46:41;16.60;99.90
18189;DHT22;9219;50.396;8.546;2023-08-01T08:49:10;16.80;99.90
18189;DHT22;9219;50.396;8.546;2023-08-01T08:51:38;16.70;99.90
18189;DHT22;9219;50.396;8.546;2023-08-01T08:59:10;17.30;99.90
18189;DHT22;9219;50.396;8.546;2023-08-01T09:01:38;17.70;99.90
18189;DHT22;9219;50.396;8.546;2023-08-01T09:04:06;17.40;99.90
18189;DHT22;9219;50.396;8.546;2023-08-01T09:06:40;17.50;99.90
18189;DHT22;9219;50.396;8.546;2023-08-01T09:09:19;17.60;99.90
18189;DHT22;9219;50.396;8.546;2023-08-01T09:11:51;17.70;99.90
18189;DHT22;9219;50.396;8.546;2023-08-01T09:14:23;17.70;99.90
18189;DHT22;9219;50.396;8.546;2023-08-01T09:21:39;17.40;99.90
18189;DHT22;9219;50.396;8.546;2023-08-01T09:24:09;17.10;99.90
18189;DHT22;9219;50.396;8.546;2023-08-01T09:26:37;17.10;99.90
18189;DHT22;9219;50.396;8.546;2023-08-01T09:29:05;17.30;99.90
18189;DHT22;9219;50.396;8.546;2023-08-01T09:31:35;17.50;99.90
18189;DHT22;9219;50.396;8.546;2023-08-01T09:34:03;17.60;99.90
18189;DHT22;9219;50.396;8.546;2023-08-01T09:36:37;17.70;99.90
18189;DHT22;9219;50.396;8.546;2023-08-01T09:44:10;17.60;99.90
18189;DHT22;9219;50.396;8.546;2023-08-01T09:46:37;17.50;99.90
18189;DHT22;9219;50.396;8.546;2023-08-01T09:49:08;17.40;99.90
18189;DHT22;9219;50.396;8.546;2023-08-01T09:51:46;17.00;99.90
18189;DHT22;9219;50.396;8.546;2023-08-01T09:54:14;16.80;99.90
18189;DHT22;9219;50.396;8.546;2023-08-01T09:56:44;16.90;99.90
18189;DHT22;9219;50.396;8.546;2023-08-01T09:59:13;17.20;99.90
18189;DHT22;9219;50.396;8.546;2023-08-01T10:06:43;17.10;99.90
18189;DHT22;9219;50.396;8.546;2023-08-01T10:09:12;16.90;99.90
18189;DHT22;9219;50.396;8.546;2023-08-01T10:11:41;17.00;99.90
18189;DHT22;9219;50.396;8.546;2023-08-01T10:14:08;17.10;99.90
18189;DHT22;9219;50.396;8.546;2023-08-01T10:16:36;16.60;99.90
18189;DHT22;9219;50.396;8.546;2023-08-01T10:19:06;16.30;99.90
18189;DHT22;9219;50.396;8.546;2023-08-01T10:21:38;16.50;99.90
18189;DHT22;9219;50.396;8.546;2023-08-01T10:28:51;16.90;99.90
18189;DHT22;9219;50.396;8.546;2023-08-01T10:31:19;17.50;99.90
18189;DHT22;9219;50.396;8.546;2023-08-01T10:33:48;17.90;99.90
18189;DHT22;9219;50.396;8.546;2023-08-01T10:36:16;17.70;99.90
18189;DHT22;9219;50.396;8.546;2023-08-01T10:38:48;17.60;99.90
18189;DHT22;9219;50.396;8.546;2023-08-01T10:41:20;17.50;99.90
18189;DHT22;9219;50.396;8.546;2023-08-01T10:43:47;17.90;99.90
18189;DHT22;9219;50.396;8.546;2023-08-01T10:51:19;18.10;99.90
18189;DHT22;9219;50.396;8.546;2023-08-01T10:53:46;17.50;99.90
18189;DHT22;9219;50.396;8.546;2023-08-01T10:56:19;17.70;99.90
18189;DHT22;9219;50.396;8.546;2023-08-01T10:58:47;17.10;99.90
18189;DHT22;9219;50.396;8.546;2023-08-01T11:01:14;17.40;99.90
18189;DHT22;9219;50.396;8.546;2023-08-01T11:03:41;17.80;99.90
18189;DHT22;9219;50.396;8.546;2023-08-01T11:06:11;17.80;99.90
18189;DHT22;9219;50.396;8.546;2023-08-01T11:13:39;18.30;99.90
18189;DHT22;9219;50.396;8.546;2023-08-01T11:16:10;18.80;99.90
18189;DHT22;9219;50.396;8.546;2023-08-01T11:18:44;19.10;99.90
18189;DHT22;9219;50.396;8.546;2023-08-01T11:21:11;19.60;99.90
18189;DHT22;9219;50.396;8.546;2023-08-01T11:23:38;19.70;99.90
18189;DHT22;9219;50.396;8.546;2023-08-01T11:26:11;19.50;99.90
18189;DHT22;9219;50.396;8.546;2023-08-01T11:28:39;19.70;99.90
18189;DHT22;9219;50.396;8.546;2023-08-01T11:36:18;19.10;99.90
18189;DHT22;9219;50.396;8.546;2023-08-01T11:38:46;19.30;99.90
18189;DHT22;9219;50.396;8.546;2023-08-01T11:41:13;19.70;99.90
18189;DHT22;9219;50.396;8.546;2023-08-01T11:43:42;19.50;99.90
18189;DHT22;9219;50.396;8.546;2023-08-01T11:46:12;19.20;99.90
18189;DHT22;9219;50.396;8.546;2023-08-01T11:48:44;19.30;99.90
18189;DHT22;9219;50.396;8.546;2023-08-01T11:51:12;19.60;99.90
18189;DHT22;9219;50.396;8.546;2023-08-01T11:58:48;18.90;99.90
18189;DHT22;9219;50.396;8.546;2023-08-01T12:01:21;18.90;99.90
18189;DHT22;9219;50.396;8.546;2023-08-01T12:03:54;18.90;99.90
18189;DHT22;9219;50.396;8.546;2023-08-01T12:06:26;19.00;99.90
18189;DHT22;9219;50.396;8.546;2023-08-01T12:09:07;18.80;99.90
18189;DHT22;9219;50.396;8.546;2023-08-01T12:11:34;18.90;99.90
18189;DHT22;9219;50.396;8.546;2023-08-01T12:16:46;19.10;99.90
18189;DHT22;9219;50.396;8.546;2023-08-01T12:19:17;19.50;99.90
18189;DHT22;9219;50.396;8.546;2023-08-01T12:21:45;19.80;99.90
18189;DHT22;9219;50.396;8.546;2023-08-01T12:24:13;19.90;99.90
18189;DHT22;9219;50.396;8.546;2023-08-01T12:26:42;19.80;99.90
18189;DHT22;9219;50.396;8.546;2023-08-01T12:29:10;19.90;99.90
18189;DHT22;9219;50.396;8.546;2023-08-01T12:31:38;20.20;99.90
18189;DHT22;9219;50.396;8.546;2023-08-01T12:39:13;20.30;99.90
18189;DHT22;9219;50.396;8.546;2023-08-01T12:41:42;20.10;99.90
18189;DHT22;9219;50.396;8.546;2023-08-01T12:44:12;19.50;99.90
18189;DHT22;9219;50.396;8.546;2023-08-01T12:46:42;19.30;99.90
18189;DHT22;9219;50.396;8.546;2023-08-01T12:49:11;19.10;99.90
18189;DHT22;9219;50.396;8.546;2023-08-01T12:51:43;19.30;99.90
18189;DHT22;9219;50.396;8.546;2023-08-01T12:54:16;19.50;99.90
18189;DHT22;9219;50.396;8.546;2023-08-01T13:01:49;18.80;99.90
18189;DHT22;9219;50.396;8.546;2023-08-01T13:04:17;18.90;99.90
18189;DHT22;9219;50.396;8.546;2023-08-01T13:06:45;18.90;99.90
18189;DHT22;9219;50.396;8.546;2023-08-01T13:09:13;18.70;99.90
18189;DHT22;9219;50.396;8.546;2023-08-01T13:11:44;18.60;99.90
18189;DHT22;9219;50.396;8.546;2023-08-01T13:14:12;18.90;99.90
18189;DHT22;9219;50.396;8.546;2023-08-01T13:16:39;18.50;99.90
18189;DHT22;9219;50.396;8.546;2023-08-01T13:24:15;18.00;99.90
18189;DHT22;9219;50.396;8.546;2023-08-01T13:26:46;18.50;99.90
18189;DHT22;9219;50.396;8.546;2023-08-01T13:29:14;18.60;99.90
18189;DHT22;9219;50.396;8.546;2023-08-01T13:31:44;18.50;99.90
18189;DHT22;9219;50.396;8.546;2023-08-01T13:34:14;17.80;99.90
18189;DHT22;9219;50.396;8.546;2023-08-01T13:36:45;17.30;99.90
18189;DHT22;9219;50.396;8.546;2023-08-01T13:39:27;16.80;99.90
18189;DHT22;9219;50.396;8.546;2023-08-01T13:44:49;16.60;99.90
18189;DHT22;9219;50.396;8.546;2023-08-01T13:47:17;17.00;99.90
18189;DHT22;9219;50.396;8.546;2023-08-01T13:49:44;16.70;99.90
18189;DHT22;9219;50.396;8.546;2023-08-01T13:52:12;16.40;99.90
18189;DHT22;9219;50.396;8.546;2023-08-01T13:54:40;16.80;99.90
18189;DHT22;9219;50.396;8.546;2023-08-01T13:57:07;17.30;99.90
18189;DHT22;9219;50.396;8.546;2023-08-01T13:59:35;17.20;99.90
18189;DHT22;9219;50.396;8.546;2023-08-01T14:06:32;18.20;99.90
18189;DHT22;9219;50.396;8.546;2023-08-01T14:09:02;18.60;99.90
18189;DHT22;9219;50.396;8.546;2023-08-01T14:11:32;18.80;99.90
18189;DHT22;9219;50.396;8.546;2023-08-01T14:14:03;18.70;99.90
18189;DHT22;9219;50.396;8.546;2023-08-01T14:16:32;18.60;99.90
18189;DHT22;9219;50.396;8.546;2023-08-01T14:19:02;18.60;99.90
18189;DHT22;9219;50.396;8.546;2023-08-01T14:21:33;18.20;99.90
18189;DHT22;9219;50.396;8.546;2023-08-01T14:26:43;18.50;99.90
18189;DHT22;9219;50.396;8.546;2023-08-01T14:29:14;18.50;99.90
18189;DHT22;9219;50.396;8.546;2023-08-01T14:31:48;18.80;99.90
18189;DHT22;9219;50.396;8.546;2023-08-01T14:34:19;18.80;99.90
18189;DHT22;9219;50.396;8.546;2023-08-01T14:36:48;18.50;99.90
18189;DHT22;9219;50.396;8.546;2023-08-01T14:39:16;18.50;99.90
18189;DHT22;9219;50.396;8.546;2023-08-01T14:46:08;18.30;99.90
18189;DHT22;9219;50.396;8.546;2023-08-01T14:48:39;17.90;99.90
18189;DHT22;9219;50.396;8.546;2023-08-01T14:51:14;17.60;99.90
18189;DHT22;9219;50.396;8.546;2023-08-01T14:53:47;17.20;99.90
18189;DHT22;9219;50.396;8.546;2023-08-01T14:56:22;17.30;99.90
18189;DHT22;9219;50.396;8.546;2023-08-01T14:58:58;17.40;99.90
18189;DHT22;9219;50.396;8.546;2023-08-01T15:01:31;17.20;99.90
18189;DHT22;9219;50.396;8.546;2023-08-01T15:09:13;17.50;99.90
18189;DHT22;9219;50.396;8.546;2023-08-01T15:11:47;18.20;99.90
18189;DHT22;9219;50.396;8.546;2023-08-01T15:14:20;18.00;99.90
18189;DHT22;9219;50.396;8.546;2023-08-01T15:16:52;18.20;99.90
18189;DHT22;9219;50.396;8.546;2023-08-01T15:19:24;18.70;99.90
18189;DHT22;9219;50.396;8.546;2023-08-01T15:21:53;18.70;99.90
18189;DHT22;9219;50.396;8.546;2023-08-01T15:24:23;18.10;99.90
18189;DHT22;9219;50.396;8.546;2023-08-01T15:31:23;18.50;99.90
18189;DHT22;9219;50.396;8.546;2023-08-01T15:33:55;18.70;99.90
18189;DHT22;9219;50.396;8.546;2023-08-01T15:36:29;18.60;99.90
18189;DHT22;9219;50.396;8.546;2023-08-01T15:39:01;18.70;99.90
18189;DHT22;9219;50.396;8.546;2023-08-01T15:41:34;18.80;99.90
18189;DHT22;9219;50.396;8.546;2023-08-01T15:44:05;18.60;99.90
18189;DHT22;9219;50.396;8.546;2023-08-01T15:49:17;18.30;99.90
18189;DHT22;9219;50.396;8.546;2023-08-01T15:51:50;18.20;99.90
18189;DHT22;9219;50.396;8.546;2023-08-01T15:54:18;18.30;99.90
18189;DHT22;9219;50.396;8.546;2023-08-01T15:56:49;18.40;99.90
18189;DHT22;9219;50.396;8.546;2023-08-01T15:59:22;18.70;99.90
18189;DHT22;9219;50.396;8.546;2023-08-01T16:01:53;18.10;99.90
18189;DHT22;9219;50.396;8.546;2023-08-01T16:04:22;17.90;99.90
18189;DHT22;9219;50.396;8.546;2023-08-01T16:11:26;18.30;99.90
18189;DHT22;9219;50.396;8.546;2023-08-01T16:14:00;17.60;99.90
18189;DHT22;9219;50.396;8.546;2023-08-01T16:16:36;17.80;99.90
18189;DHT22;9219;50.396;8.546;2023-08-01T16:19:05;17.70;99.90
18189;DHT22;9219;50.396;8.546;2023-08-01T16:21:35;17.30;99.90
18189;DHT22;9219;50.396;8.546;2023-08-01T16:24:07;17.20;99.90
18189;DHT22;9219;50.396;8.546;2023-08-01T16:26:39;17.40;99.90
18189;DHT22;9219;50.396;8.546;2023-08-01T16:34:15;17.50;99.90
18189;DHT22;9219;50.396;8.546;2023-08-01T16:36:44;17.30;99.90
18189;DHT22;9219;50.396;8.546;2023-08-01T16:39:17;17.50;99.90
18189;DHT22;9219;50.396;8.546;2023-08-01T16:41:51;17.90;99.90
18189;DHT22;9219;50.396;8.546;2023-08-01T16:44:21;18.10;99.90
18189;DHT22;9219;50.396;8.546;2023-08-01T16:46:53;18.20;99.90
18189;DHT22;9219;50.396;8.546;2023-08-01T16:49:26;18.40;99.90
18189;DHT22;9219;50.396;8.546;2023-08-01T16:51:59;18.60;99.90
18189;DHT22;9219;50.396;8.546;2023-08-01T16:59:39;18.50;99.90
18189;DHT22;9219;50.396;8.546;2023-08-01T17:02:12;18.80;99.90
18189;DHT22;9219;50.396;8.546;2023-08-01T17:04:44;18.90;99.90
18189;DHT22;9219;50.396;8.546;2023-08-01T17:07:15;18.80;99.90
18189;DHT22;9219;50.396;8.546;2023-08-01T17:09:45;19.00;99.90
18189;DHT22;9219;50.396;8.546;2023-08-01T17:12:16;19.00;99.90
18189;DHT22;9219;50.396;8.546;2023-08-01T17:14:51;19.00;99.90
18189;DHT22;9219;50.396;8.546;2023-08-01T17:30:38;19.00;99.90
18189;DHT22;9219;50.396;8.546;2023-08-01T17:33:10;18.50;99.90
18189;DHT22;9219;50.396;8.546;2023-08-01T17:35:43;18.40;99.90
18189;DHT22;9219;50.396;8.546;2023-08-01T17:38:16;18.80;99.90
18189;DHT22;9219;50.396;8.546;2023-08-01T17:40:45;18.90;99.90
18189;DHT22;9219;50.396;8.546;2023-08-01T17:43:15;18.80;99.90
18189;DHT22;9219;50.396;8.546;2023-08-01T17:45:45;18.40;99.90
18189;DHT22;9219;50.396;8.546;2023-08-01T17:53:10;18.40;99.90
18189;DHT22;9219;50.396;8.546;2023-08-01T17:55:43;18.50;99.90
18189;DHT22;9219;50.396;8.546;2023-08-01T17:58:15;18.60;99.90
18189;DHT22;9219;50.396;8.546;2023-08-01T18:00:48;18.80;99.90
18189;DHT22;9219;50.396;8.546;2023-08-01T18:03:21;18.90;99.90
18189;DHT22;9219;50.396;8.546;2023-08-01T18:06:05;18.50;99.90
18189;DHT22;9219;50.396;8.546;2023-08-01T18:08:37;18.70;99.90
18189;DHT22;9219;50.396;8.546;2023-08-01T18:15:27;18.70;99.90
18189;DHT22;9219;50.396;8.546;2023-08-01T18:17:59;18.60;99.90
18189;DHT22;9219;50.396;8.546;2023-08-01T18:20:34;18.60;99.90
18189;DHT22;9219;50.396;8.546;2023-08-01T18:23:08;18.80;99.90
18189;DHT22;9219;50.396;8.546;2023-08-01T18:25:49;18.80;99.90
18189;DHT22;9219;50.396;8.546;2023-08-01T18:28:22;18.10;99.90
18189;DHT22;9219;50.396;8.546;2023-08-01T18:30:57;17.50;99.90
18189;DHT22;9219;50.396;8.546;2023-08-01T18:38:33;17.50;99.90
18189;DHT22;9219;50.396;8.546;2023-08-01T18:41:06;17.30;99.90
18189;DHT22;9219;50.396;8.546;2023-08-01T18:43:37;17.40;99.90
18189;DHT22;9219;50.396;8.546;2023-08-01T18:46:07;17.40;99.90
18189;DHT22;9219;50.396;8.546;2023-08-01T18:48:41;17.60;99.90
18189;DHT22;9219;50.396;8.546;2023-08-01T18:51:20;17.60;99.90
18189;DHT22;9219;50.396;8.546;2023-08-01T18:53:55;17.50;99.90
18189;DHT22;9219;50.396;8.546;2023-08-01T19:01:36;17.20;99.90
18189;DHT22;9219;50.396;8.546;2023-08-01T19:04:09;16.90;99.90
18189;DHT22;9219;50.396;8.546;2023-08-01T19:06:42;16.60;99.90
18189;DHT22;9219;50.396;8.546;2023-08-01T19:09:15;16.50;99.90
18189;DHT22;9219;50.396;8.546;2023-08-01T19:11:50;16.50;99.90
18189;DHT22;9219;50.396;8.546;2023-08-01T19:14:25;16.60;99.90
18189;DHT22;9219;50.396;8.546;2023-08-01T19:17:02;16.80;99.90
18189;DHT22;9219;50.396;8.546;2023-08-01T19:24:10;16.80;99.90
18189;DHT22;9219;50.396;8.546;2023-08-01T19:26:44;16.80;99.90
18189;DHT22;9219;50.396;8.546;2023-08-01T19:29:19;16.90;99.90
18189;DHT22;9219;50.396;8.546;2023-08-01T19:31:56;17.10;99.90
18189;DHT22;9219;50.396;8.546;2023-08-01T19:34:31;17.10;99.90
18189;DHT22;9219;50.396;8.546;2023-08-01T19:37:04;17.00;99.90
18189;DHT22;9219;50.396;8.546;2023-08-01T19:43:16;16.90;99.90
18189;DHT22;9219;50.396;8.546;2023-08-01T19:45:48;16.40;99.90
18189;DHT22;9219;50.396;8.546;2023-08-01T19:48:22;16.10;99.90
18189;DHT22;9219;50.396;8.546;2023-08-01T19:50:54;15.90;99.90
18189;DHT22;9219;50.396;8.546;2023-08-01T19:53:30;15.80;99.90
18189;DHT22;9219;50.396;8.546;2023-08-01T19:56:05;15.60;99.90
18189;DHT22;9219;50.396;8.546;2023-08-01T19:58:44;15.60;99.90
18189;DHT22;9219;50.396;8.546;2023-08-01T20:06:22;15.50;99.90
18189;DHT22;9219;50.396;8.546;2023-08-01T20:08:58;15.60;99.90
18189;DHT22;9219;50.396;8.546;2023-08-01T20:11:29;15.60;99.90
18189;DHT22;9219;50.396;8.546;2023-08-01T20:14:02;15.60;99.90
18189;DHT22;9219;50.396;8.546;2023-08-01T20:16:35;15.60;99.90
18189;DHT22;9219;50.396;8.546;2023-08-01T20:19:10;15.50;99.90
18189;DHT22;9219;50.396;8.546;2023-08-01T20:21:43;15.70;99.90